sensor_id;sensor_type;location;lat;lon;timestamp;pressure;altitude;pressure_sealevel;temperature;humidity
15193;BME280;7697;51.630;7.484;2022-12-22T00:03:30;99795.97;;;10.13;100.00
15193;BME280;7697;51.630;7.484;2022-12-22T00:08:49;99794.94;;;10.14;100.00
15193;BME280;7697;51.630;7.484;2022-12-22T00:14:09;99797.00;;;10.19;100.00
15193;BME280;7697;51.630;7.484;2022-12-22T00:19:30;99793.31;;;10.20;100.00
15193;BME280;7697;51.630;7.484;2022-12-22T00:24:49;99782.28;;;10.23;100.00
15193;BME280;7697;51.630;7.484;2022-12-22T00:30:11;99776.78;;;10.24;100.00
15193;BME280;7697;51.630;7.484;2022-12-22T00:35:32;99763.34;;;10.26;100.00
15193;BME280;7697;51.630;7.484;2022-12-22T00:40:52;99768.41;;;10.27;100.00
15193;BME280;7697;51.630;7.484;2022-12-22T00:46:18;99749.44;;;10.30;100.00
15193;BME280;7697;51.630;7.484;2022-12-22T00:51:39;99744.97;;;10.31;100.00
15193;BME280;7697;51.630;7.484;2022-12-22T00:56:59;99730.34;;;10.28;100.00
15193;BME280;7697;51.630;7.484;2022-12-22T01:02:19;99733.00;;;10.28;100.00
15193;BME280;7697;51.630;7.484;2022-12-22T01:07:40;99721.34;;;10.29;100.00
15193;BME280;7697;51.630;7.484;2022-12-22T01:12:59;99724.44;;;10.26;100.00
15193;BME280;7697;51.630;7.484;2022-12-22T01:18:19;99714.69;;;10.27;100.00
15193;BME280;7697;51.630;7.484;2022-12-22T01:23:39;99706.66;;;10.33;100.00
15193;BME280;7697;51.630;7.484;2022-12-22T01:28:58;99700.78;;;10.31;100.00
15193;BME280;7697;51.630;7.484;2022-12-22T01:34:17;99692.41;;;10.34;100.00
15193;BME280;7697;51.630;7.484;2022-12-22T01:39:38;99674.09;;;10.33;100.00
15193;BME280;7697;51.630;7.484;2022-12-22T01:45:00;99677.94;;;10.37;100.00
15193;BME280;7697;51.630;7.484;2022-12-22T01:50:24;99675.03;;;10.38;100.00
15193;BME280;7697;51.630;7.484;2022-12-22T01:55:46;99663.44;;;10.39;100.00
15193;BME280;7697;51.630;7.484;2022-12-22T02:01:06;99662.41;;;10.40;100.00
15193;BME280;7697;51.630;7.484;2022-12-22T02:06:28;99646.53;;;10.40;100.00
15193;BME280;7697;51.630;7.484;2022-12-22T02:11:57;99637.56;;;10.41;100.00
15193;BME280;7697;51.630;7.484;2022-12-22T02:17:24;99626.97;;;10.41;100.00
15193;BME280;7697;51.630;7.484;2022-12-22T02:22:50;99619.84;;;10.42;100.00
15193;BME280;7697;51.630;7.484;2022-12-22T02:28:14;99599.47;;;10.42;100.00
15193;BME280;7697;51.630;7.484;2022-12-22T02:33:34;99589.31;;;10.39;100.00
15193;BME280;7697;51.630;7.484;2022-12-22T02:38:59;99573.69;;;10.38;100.00
15193;BME280;7697;51.630;7.484;2022-12-22T02:44:27;99577.38;;;10.37;100.00
15193;BME280;7697;51.630;7.484;2022-12-22T02:49:55;99573.22;;;10.41;100.00
15193;BME280;7697;51.630;7.484;2022-12-22T02:55:16;99564.47;;;10.40;100.00
15193;BME280;7697;51.630;7.484;2022-12-22T03:00:38;99549.19;;;10.42;100.00
15193;BME280;7697;51.630;7.484;2022-12-22T03:05:57;99541.25;;;10.42;100.00
15193;BME280;7697;51.630;7.484;2022-12-22T03:11:16;99527.22;;;10.42;100.00
15193;BME280;7697;51.630;7.484;2022-12-22T03:16:37;99537.13;;;10.46;100.00
15193;BME280;7697;51.630;7.484;2022-12-22T03:21:56;99526.63;;;10.40;100.00
15193;BME280;7697;51.630;7.484;2022-12-22T03:27:14;99520.06;;;10.42;100.00
15193;BME280;7697;51.630;7.484;2022-12-22T03:32:17;99513.38;;;10.40;100.00
15193;BME280;7697;51.630;7.484;2022-12-22T03:37:19;99501.97;;;10.39;100.00
15193;BME280;7697;51.630;7.484;2022-12-22T03:42:21;99497.97;;;10.37;100.00
15193;BME280;7697;51.630;7.484;2022-12-22T03:47:41;99479.66;;;10.35;100.00
15193;BME280;7697;51.630;7.484;2022-12-22T03:52:43;99469.41;;;10.39;100.00
15193;BME280;7697;51.630;7.484;2022-12-22T03:57:45;99470.38;;;10.44;100.00
15193;BME280;7697;51.630;7.484;2022-12-22T04:02:48;99460.09;;;10.36;100.00
15193;BME280;7697;51.630;7.484;2022-12-22T04:07:49;99462.88;;;10.41;100.00
15193;BME280;7697;51.630;7.484;2022-12-22T04:12:51;99446.19;;;10.41;100.00
15193;BME280;7697;51.630;7.484;2022-12-22T04:17:58;99448.97;;;10.46;100.00
15193;BME280;7697;51.630;7.484;2022-12-22T04:23:00;99445.97;;;10.42;100.00
15193;BME280;7697;51.630;7.484;2022-12-22T04:28:01;99439.63;;;10.43;100.00
15193;BME280;7697;51.630;7.484;2022-12-22T04:33:05;99424.78;;;10.42;100.00
15193;BME280;7697;51.630;7.484;2022-12-22T04:38:06;99427.44;;;10.42;100.00
15193;BME280;7697;51.630;7.484;2022-12-22T04:43:08;99427.44;;;10.42;100.00
15193;BME280;7697;51.630;7.484;2022-12-22T04:48:11;99416.84;;;10.42;100.00
15193;BME280;7697;51.630;7.484;2022-12-22T04:53:13;99419.63;;;10.47;100.00
15193;BME280;7697;51.630;7.484;2022-12-22T04:58:15;99419.16;;;10.50;100.00
15193;BME280;7697;51.630;7.484;2022-12-22T05:03:18;99417.56;;;10.49;100.00
15193;BME280;7697;51.630;7.484;2022-12-22T05:08:20;99408.22;;;10.47;100.00
15193;BME280;7697;51.630;7.484;2022-12-22T05:13:21;99399.03;;;10.49;100.00
15193;BME280;7697;51.630;7.484;2022-12-22T05:18:24;99396.38;;;10.49;100.00
15193;BME280;7697;51.630;7.484;2022-12-22T05:23:26;99394.53;;;10.50;100.00
15193;BME280;7697;51.630;7.484;2022-12-22T05:28:28;99390.38;;;10.42;100.00
15193;BME280;7697;51.630;7.484;2022-12-22T05:33:33;99386.91;;;10.30;100.00
15193;BME280;7697;51.630;7.484;2022-12-22T05:38:34;99382.41;;;10.31;100.00
15193;BME280;7697;51.630;7.484;2022-12-22T05:43:36;99383.69;;;10.28;100.00
15193;BME280;7697;51.630;7.484;2022-12-22T05:48:40;99388.06;;;10.34;100.00
15193;BME280;7697;51.630;7.484;2022-12-22T05:53:41;99388.06;;;10.34;100.00
15193;BME280;7697;51.630;7.484;2022-12-22T05:58:43;99388.06;;;10.34;100.00
15193;BME280;7697;51.630;7.484;2022-12-22T06:03:46;99386.44;;;10.33;100.00
15193;BME280;7697;51.630;7.484;2022-12-22T06:08:48;99376.69;;;10.34;100.00
15193;BME280;7697;51.630;7.484;2022-12-22T06:13:49;99384.50;;;10.40;100.00
15193;BME280;7697;51.630;7.484;2022-12-22T06:18:52;99388.19;;;10.39;100.00
15193;BME280;7697;51.630;7.484;2022-12-22T06:23:54;99386.56;;;10.38;100.00
15193;BME280;7697;51.630;7.484;2022-12-22T06:28:55;99389.94;;;10.45;100.00
15193;BME280;7697;51.630;7.484;2022-12-22T06:33:58;99389.69;;;10.35;100.00
15193;BME280;7697;51.630;7.484;2022-12-22T06:39:00;99382.78;;;10.34;100.00
15193;BME280;7697;51.630;7.484;2022-12-22T06:44:02;99386.13;;;10.41;100.00
15193;BME280;7697;51.630;7.484;2022-12-22T06:49:05;99384.72;;;10.39;100.00
15193;BME280;7697;51.630;7.484;2022-12-22T06:54:07;99394.06;;;10.41;100.00
15193;BME280;7697;51.630;7.484;2022-12-22T06:59:09;99402.16;;;10.46;100.00
15193;BME280;7697;51.630;7.484;2022-12-22T07:04:12;99413.97;;;10.44;100.00
15193;BME280;7697;51.630;7.484;2022-12-22T07:09:18;99409.81;;;10.36;100.00
15193;BME280;7697;51.630;7.484;2022-12-22T07:14:20;99418.09;;;10.40;100.00
15193;BME280;7697;51.630;7.484;2022-12-22T07:19:23;99425.81;;;10.41;100.00
15193;BME280;7697;51.630;7.484;2022-12-22T07:24:25;99435.25;;;10.37;100.00
15193;BME280;7697;51.630;7.484;2022-12-22T07:29:28;99435.13;;;10.32;100.00
15193;BME280;7697;51.630;7.484;2022-12-22T07:34:31;99452.03;;;10.31;100.00
15193;BME280;7697;51.630;7.484;2022-12-22T07:39:33;99475.03;;;10.31;100.00
15193;BME280;7697;51.630;7.484;2022-12-22T07:44:34;99467.19;;;10.24;100.00
15193;BME280;7697;51.630;7.484;2022-12-22T07:49:37;99481.66;;;10.22;100.00
15193;BME280;7697;51.630;7.484;2022-12-22T07:54:56;99496.50;;;10.23;100.00
15193;BME280;7697;51.630;7.484;2022-12-22T07:59:58;99499.97;;;10.23;100.00
15193;BME280;7697;51.630;7.484;2022-12-22T08:05:01;99509.91;;;10.28;100.00
15193;BME280;7697;51.630;7.484;2022-12-22T08:10:03;99507.47;;;10.26;100.00
15193;BME280;7697;51.630;7.484;2022-12-22T08:15:06;99505.25;;;10.23;100.00
15193;BME280;7697;51.630;7.484;2022-12-22T08:20:10;99529.78;;;10.30;100.00
15193;BME280;7697;51.630;7.484;2022-12-22T08:25:12;99537.50;;;10.32;100.00
15193;BME280;7697;51.630;7.484;2022-12-22T08:30:13;99544.28;;;10.28;100.00
15193;BME280;7697;51.630;7.484;2022-12-22T08:35:17;99549.50;;;10.34;100.00
15193;BME280;7697;51.630;7.484;2022-12-22T08:40:21;99554.56;;;10.36;100.00
15193;BME280;7697;51.630;7.484;2022-12-22T08:45:23;99556.63;;;10.34;100.00
15193;BME280;7697;51.630;7.484;2022-12-22T08:50:26;99574.47;;;10.38;100.00
15193;BME280;7697;51.630;7.484;2022-12-22T08:55:28;99597.25;;;10.39;100.00
15193;BME280;7697;51.630;7.484;2022-12-22T09:00:30;99601.41;;;10.35;100.00
15193;BME280;7697;51.630;7.484;2022-12-22T09:05:33;99608.66;;;10.40;100.00
15193;BME280;7697;51.630;7.484;2022-12-22T09:10:40;99626.66;;;10.49;100.00
15193;BME280;7697;51.630;7.484;2022-12-22T09:15:42;99617.91;;;10.49;100.00
15193;BME280;7697;51.630;7.484;2022-12-22T09:20:45;99616.69;;;10.51;100.00
15193;BME280;7697;51.630;7.484;2022-12-22T09:25:47;99618.22;;;10.59;100.00
15193;BME280;7697;51.630;7.484;2022-12-22T09:30:49;99627.47;;;10.68;100.00
15193;BME280;7697;51.630;7.484;2022-12-22T09:35:52;99621.94;;;10.70;100.00
15193;BME280;7697;51.630;7.484;2022-12-22T09:40:55;99637.16;;;10.74;100.00
15193;BME280;7697;51.630;7.484;2022-12-22T09:45:57;99654.81;;;10.80;100.00
15193;BME280;7697;51.630;7.484;2022-12-22T09:51:01;99642.16;;;10.82;100.00
15193;BME280;7697;51.630;7.484;2022-12-22T09:56:04;99675.22;;;10.91;100.00
15193;BME280;7697;51.630;7.484;2022-12-22T10:01:14;99679.16;;;10.89;100.00
15193;BME280;7697;51.630;7.484;2022-12-22T10:06:33;99700.47;;;10.94;100.00
15193;BME280;7697;51.630;7.484;2022-12-22T10:11:49;99708.56;;;10.99;100.00
15193;BME280;7697;51.630;7.484;2022-12-22T10:17:13;99709.00;;;10.96;100.00
15193;BME280;7697;51.630;7.484;2022-12-22T10:22:26;99726.09;;;11.00;100.00
15193;BME280;7697;51.630;7.484;2022-12-22T10:27:31;99719.00;;;10.94;100.00
15193;BME280;7697;51.630;7.484;2022-12-22T10:32:33;99721.66;;;10.94;100.00
15193;BME280;7697;51.630;7.484;2022-12-22T10:37:37;99747.34;;;10.94;100.00
15193;BME280;7697;51.630;7.484;2022-12-22T10:42:44;99754.69;;;10.91;100.00
15193;BME280;7697;51.630;7.484;2022-12-22T10:47:48;99764.34;;;10.86;100.00
15193;BME280;7697;51.630;7.484;2022-12-22T10:52:53;99754.88;;;10.78;100.00
15193;BME280;7697;51.630;7.484;2022-12-22T10:58:12;99769.50;;;10.81;100.00
15193;BME280;7697;51.630;7.484;2022-12-22T11:03:27;99782.38;;;10.77;100.00
15193;BME280;7697;51.630;7.484;2022-12-22T11:08:31;99786.72;;;10.72;100.00
15193;BME280;7697;51.630;7.484;2022-12-22T11:13:46;99807.09;;;10.71;100.00
15193;BME280;7697;51.630;7.484;2022-12-22T11:19:02;99799.16;;;10.71;100.00
15193;BME280;7697;51.630;7.484;2022-12-22T11:24:17;99825.78;;;10.76;100.00
15193;BME280;7697;51.630;7.484;2022-12-22T11:29:35;99826.00;;;10.75;100.00
15193;BME280;7697;51.630;7.484;2022-12-22T11:34:50;99834.81;;;10.69;100.00
15193;BME280;7697;51.630;7.484;2022-12-22T11:40:01;99843.78;;;10.68;100.00
15193;BME280;7697;51.630;7.484;2022-12-22T11:45:18;99833.88;;;10.63;100.00
15193;BME280;7697;51.630;7.484;2022-12-22T11:50:29;99859.31;;;10.64;100.00
15193;BME280;7697;51.630;7.484;2022-12-22T11:55:37;99861.72;;;10.66;100.00
15193;BME280;7697;51.630;7.484;2022-12-22T12:00:44;99859.66;;;10.68;100.00
15193;BME280;7697;51.630;7.484;2022-12-22T12:06:02;99860.56;;;10.62;100.00
15193;BME280;7697;51.630;7.484;2022-12-22T12:11:17;99861.84;;;10.52;100.00
15193;BME280;7697;51.630;7.484;2022-12-22T12:16:31;99861.94;;;10.39;100.00
15193;BME280;7697;51.630;7.484;2022-12-22T12:21:41;99869.47;;;10.42;100.00
15193;BME280;7697;51.630;7.484;2022-12-22T12:26:52;99884.66;;;10.53;100.00
15193;BME280;7697;51.630;7.484;2022-12-22T12:32:03;99875.09;;;10.52;100.00
15193;BME280;7697;51.630;7.484;2022-12-22T12:37:13;99875.91;;;10.53;100.00
15193;BME280;7697;51.630;7.484;2022-12-22T12:42:25;99887.94;;;10.49;100.00
15193;BME280;7697;51.630;7.484;2022-12-22T12:47:29;99885.69;;;10.52;100.00
15193;BME280;7697;51.630;7.484;2022-12-22T12:58:48;99891.78;;;10.53;100.00
15193;BME280;7697;51.630;7.484;2022-12-22T13:03:51;99889.75;;;10.55;100.00
15193;BME280;7697;51.630;7.484;2022-12-22T13:09:16;99896.63;;;10.56;100.00
15193;BME280;7697;51.630;7.484;2022-12-22T13:14:57;99894.91;;;10.68;100.00
15193;BME280;7697;51.630;7.484;2022-12-22T13:20:01;99889.72;;;10.80;100.00
15193;BME280;7697;51.630;7.484;2022-12-22T13:25:03;99890.81;;;10.72;100.00
15193;BME280;7697;51.630;7.484;2022-12-22T13:30:12;99890.56;;;10.74;100.00
15193;BME280;7697;51.630;7.484;2022-12-22T13:35:20;99884.72;;;10.72;100.00
15193;BME280;7697;51.630;7.484;2022-12-22T13:40:24;99875.47;;;10.81;100.00
15193;BME280;7697;51.630;7.484;2022-12-22T13:45:32;99889.38;;;10.95;100.00
15193;BME280;7697;51.630;7.484;2022-12-22T13:50:36;99886.94;;;10.93;100.00
15193;BME280;7697;51.630;7.484;2022-12-22T13:55:40;99895.16;;;10.85;100.00
15193;BME280;7697;51.630;7.484;2022-12-22T14:00:59;99920.03;;;10.84;99.74
15193;BME280;7697;51.630;7.484;2022-12-22T14:06:01;99935.72;;;10.85;99.84
15193;BME280;7697;51.630;7.484;2022-12-22T14:11:03;99929.72;;;10.72;99.59
15193;BME280;7697;51.630;7.484;2022-12-22T14:16:11;99929.72;;;10.72;99.44
15193;BME280;7697;51.630;7.484;2022-12-22T14:21:14;99940.25;;;10.78;99.71
15193;BME280;7697;51.630;7.484;2022-12-22T14:26:17;99940.88;;;10.80;99.22
15193;BME280;7697;51.630;7.484;2022-12-22T14:31:23;99944.16;;;10.76;99.53
15193;BME280;7697;51.630;7.484;2022-12-22T14:36:25;99956.78;;;10.74;100.00
15193;BME280;7697;51.630;7.484;2022-12-22T14:41:30;99948.84;;;10.74;100.00
15193;BME280;7697;51.630;7.484;2022-12-22T14:46:44;99937.13;;;10.63;99.71
15193;BME280;7697;51.630;7.484;2022-12-22T14:51:53;99944.06;;;10.64;100.00
15193;BME280;7697;51.630;7.484;2022-12-22T14:57:01;99934.31;;;10.58;100.00
15193;BME280;7697;51.630;7.484;2022-12-22T15:02:20;99938.84;;;10.51;100.00
15193;BME280;7697;51.630;7.484;2022-12-22T15:07:22;99945.81;;;10.45;100.00
15193;BME280;7697;51.630;7.484;2022-12-22T15:12:24;99931.63;;;10.33;100.00
15193;BME280;7697;51.630;7.484;2022-12-22T15:17:29;99929.59;;;10.35;100.00
15193;BME280;7697;51.630;7.484;2022-12-22T15:22:31;99920.00;;;10.34;100.00
15193;BME280;7697;51.630;7.484;2022-12-22T15:27:32;99904.13;;;10.34;100.00
15193;BME280;7697;51.630;7.484;2022-12-22T15:32:35;99900.88;;;10.32;100.00
15193;BME280;7697;51.630;7.484;2022-12-22T15:37:37;99885.63;;;10.34;100.00
15193;BME280;7697;51.630;7.484;2022-12-22T15:42:39;99886.47;;;10.28;100.00
15193;BME280;7697;51.630;7.484;2022-12-22T15:47:43;99877.94;;;10.26;100.00
15193;BME280;7697;51.630;7.484;2022-12-22T15:52:48;99879.19;;;10.17;100.00
15193;BME280;7697;51.630;7.484;2022-12-22T15:57:52;99885.72;;;10.14;100.00
15193;BME280;7697;51.630;7.484;2022-12-22T16:02:58;99871.31;;;10.10;100.00
15193;BME280;7697;51.630;7.484;2022-12-22T16:08:00;99859.78;;;9.98;100.00
15193;BME280;7697;51.630;7.484;2022-12-22T16:13:03;99866.25;;;10.02;100.00
15193;BME280;7697;51.630;7.484;2022-12-22T16:18:06;99867.50;;;10.00;100.00
15193;BME280;7697;51.630;7.484;2022-12-22T16:23:13;99854.47;;;9.98;100.00
15193;BME280;7697;51.630;7.484;2022-12-22T16:28:19;99859.78;;;9.98;100.00
15193;BME280;7697;51.630;7.484;2022-12-22T16:33:22;99855.72;;;9.96;100.00
15193;BME280;7697;51.630;7.484;2022-12-22T16:38:24;99830.16;;;9.83;100.00
15193;BME280;7697;51.630;7.484;2022-12-22T16:43:29;99824.44;;;9.86;100.00
15193;BME280;7697;51.630;7.484;2022-12-22T16:48:39;99813.69;;;9.81;100.00
15193;BME280;7697;51.630;7.484;2022-12-22T16:53:41;99819.16;;;9.86;100.00
15193;BME280;7697;51.630;7.484;2022-12-22T16:58:43;99815.69;;;9.86;100.00
15193;BME280;7697;51.630;7.484;2022-12-22T17:03:46;99802.47;;;9.86;100.00
15193;BME280;7697;51.630;7.484;2022-12-22T17:08:48;99793.16;;;9.83;100.00
15193;BME280;7697;51.630;7.484;2022-12-22T17:13:51;99800.28;;;9.83;100.00
15193;BME280;7697;51.630;7.484;2022-12-22T17:18:55;99783.78;;;9.81;100.00
15193;BME280;7697;51.630;7.484;2022-12-22T17:23:58;99786.22;;;9.82;100.00
15193;BME280;7697;51.630;7.484;2022-12-22T17:29:03;99774.19;;;9.86;100.00
15193;BME280;7697;51.630;7.484;2022-12-22T17:34:12;99760.22;;;9.79;100.00
15193;BME280;7697;51.630;7.484;2022-12-22T17:39:15;99754.72;;;9.81;100.00
15193;BME280;7697;51.630;7.484;2022-12-22T17:44:20;99751.03;;;9.82;100.00
15193;BME280;7697;51.630;7.484;2022-12-22T17:49:23;99731.78;;;9.74;100.00
15193;BME280;7697;51.630;7.484;2022-12-22T17:54:26;99729.72;;;9.76;100.00
15193;BME280;7697;51.630;7.484;2022-12-22T17:59:28;99724.66;;;9.75;100.00
15193;BME280;7697;51.630;7.484;2022-12-22T18:04:31;99703.72;;;9.73;100.00
15193;BME280;7697;51.630;7.484;2022-12-22T18:09:33;99714.72;;;9.70;100.00
15193;BME280;7697;51.630;7.484;2022-12-22T18:14:34;99700.19;;;9.79;100.00
15193;BME280;7697;51.630;7.484;2022-12-22T18:19:37;99679.47;;;9.76;100.00
15193;BME280;7697;51.630;7.484;2022-12-22T18:24:39;99688.19;;;9.84;100.00
15193;BME280;7697;51.630;7.484;2022-12-22T18:29:41;99675.53;;;9.86;100.00
15193;BME280;7697;51.630;7.484;2022-12-22T18:34:44;99678.34;;;9.91;100.00
15193;BME280;7697;51.630;7.484;2022-12-22T18:39:46;99658.34;;;9.95;100.00
15193;BME280;7697;51.630;7.484;2022-12-22T18:44:48;99662.63;;;9.96;100.00
15193;BME280;7697;51.630;7.484;2022-12-22T18:49:52;99648.97;;;9.99;100.00
15193;BME280;7697;51.630;7.484;2022-12-22T18:54:53;99630.88;;;9.96;100.00
15193;BME280;7697;51.630;7.484;2022-12-22T18:59:55;99642.00;;;10.04;100.00
15193;BME280;7697;51.630;7.484;2022-12-22T19:04:58;99628.97;;;10.03;100.00
15193;BME280;7697;51.630;7.484;2022-12-22T19:09:59;99629.38;;;10.06;100.00
15193;BME280;7697;51.630;7.484;2022-12-22T19:15:03;99631.94;;;10.13;100.00
15193;BME280;7697;51.630;7.484;2022-12-22T19:20:14;99604.53;;;10.07;100.00
15193;BME280;7697;51.630;7.484;2022-12-22T19:25:17;99600.88;;;10.08;100.00
15193;BME280;7697;51.630;7.484;2022-12-22T19:30:22;99586.53;;;10.16;100.00
15193;BME280;7697;51.630;7.484;2022-12-22T19:35:28;99584.09;;;10.14;100.00
15193;BME280;7697;51.630;7.484;2022-12-22T19:40:31;99592.16;;;10.26;100.00
15193;BME280;7697;51.630;7.484;2022-12-22T19:45:34;99581.91;;;10.30;100.00
15193;BME280;7697;51.630;7.484;2022-12-22T19:50:37;99577.06;;;10.27;100.00
15193;BME280;7697;51.630;7.484;2022-12-22T19:55:40;99564.34;;;10.35;100.00
15193;BME280;7697;51.630;7.484;2022-12-22T20:00:43;99577.41;;;10.30;100.00
15193;BME280;7697;51.630;7.484;2022-12-22T20:05:47;99573.31;;;10.34;100.00
15193;BME280;7697;51.630;7.484;2022-12-22T20:10:49;99570.22;;;10.37;100.00
15193;BME280;7697;51.630;7.484;2022-12-22T20:15:50;99563.66;;;10.40;100.00
15193;BME280;7697;51.630;7.484;2022-12-22T20:20:59;99563.09;;;10.38;100.00
15193;BME280;7697;51.630;7.484;2022-12-22T20:26:04;99563.44;;;10.41;100.00
15193;BME280;7697;51.630;7.484;2022-12-22T20:31:09;99563.72;;;10.51;100.00
15193;BME280;7697;51.630;7.484;2022-12-22T20:36:20;99573.28;;;10.52;100.00
15193;BME280;7697;51.630;7.484;2022-12-22T20:41:22;99565.94;;;10.55;100.00
15193;BME280;7697;51.630;7.484;2022-12-22T20:46:26;99552.22;;;10.58;100.00
15193;BME280;7697;51.630;7.484;2022-12-22T20:51:31;99547.91;;;10.63;100.00
15193;BME280;7697;51.630;7.484;2022-12-22T20:56:35;99546.63;;;10.66;100.00
15193;BME280;7697;51.630;7.484;2022-12-22T21:01:38;99545.97;;;10.70;100.00
15193;BME280;7697;51.630;7.484;2022-12-22T21:06:45;99548.72;;;10.75;100.00
15193;BME280;7697;51.630;7.484;2022-12-22T21:11:48;99543.69;;;10.85;100.00
15193;BME280;7697;51.630;7.484;2022-12-22T21:16:50;99552.44;;;10.86;100.00
15193;BME280;7697;51.630;7.484;2022-12-22T21:21:53;99532.28;;;10.85;100.00
15193;BME280;7697;51.630;7.484;2022-12-22T21:26:55;99529.31;;;10.93;100.00
15193;BME280;7697;51.630;7.484;2022-12-22T21:31:56;99530.59;;;10.90;100.00
15193;BME280;7697;51.630;7.484;2022-12-22T21:37:01;99530.13;;;10.94;100.00
15193;BME280;7697;51.630;7.484;2022-12-22T21:42:03;99527.94;;;11.02;100.00
15193;BME280;7697;51.630;7.484;2022-12-22T21:47:05;99537.66;;;11.08;100.00
15193;BME280;7697;51.630;7.484;2022-12-22T21:52:08;99545.25;;;11.05;100.00
15193;BME280;7697;51.630;7.484;2022-12-22T21:57:12;99544.22;;;11.06;100.00
15193;BME280;7697;51.630;7.484;2022-12-22T22:02:16;99544.78;;;11.08;100.00
15193;BME280;7697;51.630;7.484;2022-12-22T22:07:19;99542.47;;;11.11;100.00
15193;BME280;7697;51.630;7.484;2022-12-22T22:12:20;99551.38;;;11.17;100.00
15193;BME280;7697;51.630;7.484;2022-12-22T22:17:36;99547.34;;;11.14;100.00
15193;BME280;7697;51.630;7.484;2022-12-22T22:22:39;99538.56;;;11.14;100.00
15193;BME280;7697;51.630;7.484;2022-12-22T22:27:41;99539.28;;;11.09;100.00
15193;BME280;7697;51.630;7.484;2022-12-22T22:32:44;99532.91;;;11.10;100.00
15193;BME280;7697;51.630;7.484;2022-12-22T22:37:47;99534.19;;;11.08;100.00
15193;BME280;7697;51.630;7.484;2022-12-22T22:42:50;99540.75;;;11.05;100.00
15193;BME280;7697;51.630;7.484;2022-12-22T22:47:52;99544.22;;;11.06;100.00
15193;BME280;7697;51.630;7.484;2022-12-22T22:52:55;99529.56;;;11.03;100.00
15193;BME280;7697;51.630;7.484;2022-12-22T22:57:57;99544.00;;;11.07;100.00
15193;BME280;7697;51.630;7.484;2022-12-22T23:02:58;99544.78;;;11.08;100.00
15193;BME280;7697;51.630;7.484;2022-12-22T23:08:02;99540.38;;;11.02;100.00
15193;BME280;7697;51.630;7.484;2022-12-22T23:13:04;99530.81;;;11.01;100.00
15193;BME280;7697;51.630;7.484;2022-12-22T23:18:05;99537.75;;;11.02;100.00
15193;BME280;7697;51.630;7.484;2022-12-22T23:23:09;99536.38;;;10.99;100.00
15193;BME280;7697;51.630;7.484;2022-12-22T23:28:11;99539.84;;;11.00;100.00
15193;BME280;7697;51.630;7.484;2022-12-22T23:33:13;99549.72;;;11.04;100.00
15193;BME280;7697;51.630;7.484;2022-12-22T23:38:18;99547.09;;;11.04;100.00
15193;BME280;7697;51.630;7.484;2022-12-22T23:43:20;99532.44;;;11.02;100.00
15193;BME280;7697;51.630;7.484;2022-12-22T23:48:22;99531.78;;;11.06;100.00
15193;BME280;7697;51.630;7.484;2022-12-22T23:53:25;99532.81;;;11.05;100.00
15193;BME280;7697;51.630;7.484;2022-12-22T23:58:27;99536.03;;;11.07;100.00
